createdAt,value
2022-08-19T00:01:42.112Z,5.60
2022-08-19T00:04:12.474Z,5.28
2022-08-19T00:06:40.439Z,5.47
2022-08-19T00:09:11.143Z,5.70
2022-08-19T00:11:38.798Z,6.03
2022-08-19T00:14:08.237Z,4.93
2022-08-19T00:16:34.767Z,5.22
2022-08-19T00:19:01.183Z,6.18
2022-08-19T00:21:28.308Z,5.03
2022-08-19T00:23:58.976Z,5.55
2022-08-19T00:26:27.032Z,6.63
2022-08-19T00:28:53.456Z,6.18
2022-08-19T00:31:20.442Z,6.07
2022-08-19T00:33:46.836Z,6.15
2022-08-19T00:36:13.482Z,7.30
2022-08-19T00:38:44.196Z,6.72
2022-08-19T00:41:14.486Z,5.83
2022-08-19T00:43:42.131Z,4.93
2022-08-19T00:46:08.951Z,6.10
2022-08-19T00:48:37.000Z,4.72
2022-08-19T00:51:05.284Z,4.88
2022-08-19T00:53:34.287Z,4.88
2022-08-19T00:56:02.139Z,5.13
2022-08-19T00:58:33.341Z,4.60
2022-08-19T01:01:00.543Z,4.93
2022-08-19T01:03:27.011Z,5.60
2022-08-19T01:05:55.586Z,5.00
2022-08-19T01:08:23.125Z,4.85
2022-08-19T01:11:06.327Z,5.03
2022-08-19T01:13:44.609Z,5.32
2022-08-19T01:16:22.479Z,5.75
2022-08-19T01:18:49.990Z,4.70
2022-08-19T01:21:25.338Z,4.80
2022-08-19T01:23:51.954Z,4.90
2022-08-19T01:26:22.394Z,4.70
2022-08-19T01:31:26.734Z,4.38
2022-08-19T01:33:57.193Z,4.28
2022-08-19T01:36:29.132Z,4.53
2022-08-19T01:38:56.166Z,4.40
2022-08-19T01:41:24.406Z,4.70
2022-08-19T01:44:09.985Z,4.50
2022-08-19T01:46:44.461Z,5.50
2022-08-19T01:49:11.452Z,4.03
2022-08-19T01:51:40.302Z,4.85
2022-08-19T01:54:08.207Z,4.50
2022-08-19T01:56:34.770Z,4.18
2022-08-19T01:59:04.768Z,4.80
2022-08-19T02:01:33.371Z,4.18
2022-08-19T02:04:01.496Z,3.83
2022-08-19T02:06:29.655Z,4.18
2022-08-19T02:08:59.608Z,3.88
2022-08-19T02:11:31.468Z,4.57
2022-08-19T02:13:58.455Z,4.68
2022-08-19T02:16:29.752Z,4.28
2022-08-19T02:18:56.141Z,3.97
2022-08-19T02:21:24.387Z,4.28
2022-08-19T02:23:51.667Z,4.57
2022-08-19T02:26:19.564Z,3.97
2022-08-19T02:28:46.125Z,4.40
2022-08-19T02:31:19.418Z,4.30
2022-08-19T02:33:47.313Z,4.63
2022-08-19T02:36:20.598Z,4.63
2022-08-19T02:38:55.092Z,4.57
2022-08-19T02:41:26.874Z,4.78
2022-08-19T02:44:29.599Z,4.55
2022-08-19T02:46:49.069Z,5.80
2022-08-19T02:49:18.827Z,4.70
2022-08-19T02:51:46.791Z,5.05
2022-08-19T02:54:14.317Z,4.97
2022-08-19T02:56:42.342Z,4.90
2022-08-19T02:59:11.896Z,5.20
2022-08-19T03:01:43.639Z,5.40
2022-08-19T03:04:14.181Z,4.63
2022-08-19T03:06:43.557Z,5.40
2022-08-19T03:09:11.042Z,4.85
2022-08-19T03:11:38.398Z,6.03
2022-08-19T03:14:07.355Z,5.13
2022-08-19T03:16:40.602Z,5.13
2022-08-19T03:19:07.216Z,4.85
2022-08-19T03:21:35.324Z,4.47
2022-08-19T03:24:09.474Z,5.30
2022-08-19T03:26:40.287Z,5.07
2022-08-19T03:29:07.525Z,4.87
2022-08-19T03:31:43.871Z,5.00
2022-08-19T03:34:28.281Z,4.75
2022-08-19T03:36:56.394Z,4.53
2022-08-19T03:39:24.867Z,5.93
2022-08-19T03:42:31.708Z,5.50
2022-08-19T03:44:46.799Z,6.85
2022-08-19T03:47:19.436Z,6.13
2022-08-19T03:49:46.264Z,5.82
2022-08-19T03:52:14.298Z,7.43
2022-08-19T03:54:40.938Z,7.28
2022-08-19T03:57:07.749Z,6.22
2022-08-19T03:59:36.589Z,8.80
2022-08-19T04:02:10.057Z,6.85
2022-08-19T04:04:38.452Z,7.70
2022-08-19T04:07:05.628Z,9.10
2022-08-19T04:09:34.714Z,8.50
2022-08-19T04:12:01.172Z,8.50
2022-08-19T04:14:31.115Z,9.00
2022-08-19T04:16:59.821Z,7.25
2022-08-19T04:19:29.660Z,8.93
2022-08-19T04:21:56.545Z,8.60
2022-08-19T04:24:24.270Z,8.07
2022-08-19T04:26:51.747Z,7.95
2022-08-19T04:29:22.772Z,7.70
2022-08-19T04:31:50.016Z,8.32
2022-08-19T04:34:18.456Z,8.55
2022-08-19T04:36:52.060Z,8.35
2022-08-19T04:40:10.813Z,8.10
2022-08-19T04:42:40.514Z,7.53
2022-08-19T04:45:13.227Z,7.38
2022-08-19T04:47:46.877Z,7.85
2022-08-19T04:50:21.112Z,6.70
2022-08-19T04:52:47.550Z,6.03
2022-08-19T04:55:17.679Z,6.57
2022-08-19T04:57:44.117Z,6.22
2022-08-19T05:00:12.018Z,6.65
2022-08-19T05:02:42.720Z,6.93
2022-08-19T05:05:09.408Z,7.38
2022-08-19T05:07:36.802Z,7.57
2022-08-19T05:10:05.728Z,9.38
2022-08-19T05:12:32.244Z,9.00
2022-08-19T05:14:59.376Z,12.23
2022-08-19T05:17:29.632Z,12.63
2022-08-19T05:20:17.432Z,15.25
2022-08-19T05:22:45.803Z,15.95
2022-08-19T05:25:15.913Z,15.02
2022-08-19T05:27:43.267Z,16.73
2022-08-19T05:30:11.642Z,17.85
2022-08-19T05:32:39.211Z,17.33
2022-08-19T05:35:07.579Z,20.77
2022-08-19T05:37:34.239Z,21.50
2022-08-19T05:40:00.851Z,25.88
2022-08-19T05:42:27.393Z,27.45
2022-08-19T05:44:54.519Z,21.60
2022-08-19T05:47:22.503Z,23.67
2022-08-19T05:49:51.194Z,26.75
2022-08-19T05:52:18.850Z,29.42
2022-08-19T05:57:29.823Z,29.23
2022-08-19T05:59:58.864Z,27.92
2022-08-19T06:02:32.009Z,32.10
2022-08-19T06:04:58.688Z,30.77
2022-08-19T06:07:25.489Z,29.75
2022-08-19T06:09:58.914Z,31.25
2022-08-19T06:12:39.205Z,28.67
2022-08-19T06:15:15.449Z,28.73
2022-08-19T06:17:45.115Z,29.15
2022-08-19T06:20:15.042Z,31.20
2022-08-19T06:22:43.772Z,25.77
2022-08-19T06:25:11.498Z,35.47
2022-08-19T06:27:48.298Z,33.88
2022-08-19T06:30:25.261Z,33.83
2022-08-19T06:32:51.902Z,32.05
2022-08-19T06:35:19.790Z,33.90
2022-08-19T06:37:46.352Z,28.42
2022-08-19T06:40:13.448Z,33.13
2022-08-19T06:42:44.447Z,33.63
2022-08-19T06:45:21.451Z,35.33
2022-08-19T06:47:55.307Z,31.40
2022-08-19T06:50:21.900Z,34.28
2022-08-19T06:52:51.624Z,34.50
2022-08-19T06:55:19.757Z,36.70
2022-08-19T06:57:47.375Z,34.90
2022-08-19T07:00:15.085Z,38.10
2022-08-19T07:02:49.732Z,32.22
2022-08-19T07:05:22.157Z,37.15
2022-08-19T07:07:48.719Z,36.05
2022-08-19T07:10:17.418Z,43.80
2022-08-19T07:12:43.837Z,40.90
2022-08-19T07:15:11.756Z,37.72
2022-08-19T07:17:40.178Z,40.17
2022-08-19T07:20:09.390Z,45.50
2022-08-19T07:22:38.445Z,40.85
2022-08-19T07:25:07.221Z,39.97
2022-08-19T07:27:34.965Z,42.67
2022-08-19T07:30:12.270Z,42.38
2022-08-19T07:32:42.737Z,41.80
2022-08-19T07:35:11.491Z,40.15
2022-08-19T07:37:49.821Z,44.10
2022-08-19T07:40:18.369Z,42.05
2022-08-19T07:42:49.239Z,42.03
2022-08-19T07:45:17.948Z,39.85
2022-08-19T07:47:50.060Z,37.08
2022-08-19T07:50:20.274Z,38.95
2022-08-19T07:52:48.900Z,41.17
2022-08-19T07:55:41.840Z,42.35
2022-08-19T07:58:05.861Z,43.78
2022-08-19T08:00:32.820Z,43.28
2022-08-19T08:02:59.230Z,41.85
2022-08-19T08:05:50.172Z,43.58
2022-08-19T08:08:44.229Z,43.63
2022-08-19T08:11:16.206Z,43.63
2022-08-19T08:13:44.377Z,44.05
2022-08-19T08:16:19.871Z,41.47
2022-08-19T08:18:50.724Z,43.05
2022-08-19T08:21:19.818Z,42.28
2022-08-19T08:23:46.432Z,42.70
2022-08-19T08:26:16.326Z,40.58
2022-08-19T08:28:47.879Z,40.45
2022-08-19T08:31:16.300Z,42.42
2022-08-19T08:33:50.222Z,45.97
2022-08-19T08:36:17.249Z,40.05
2022-08-19T08:38:47.556Z,42.75
2022-08-19T08:41:28.443Z,45.47
2022-08-19T08:44:09.692Z,40.43
2022-08-19T08:46:52.738Z,39.75
2022-08-19T08:49:46.355Z,45.53
2022-08-19T08:52:25.793Z,36.50
2022-08-19T08:55:03.295Z,37.53
2022-08-19T08:57:52.074Z,40.65
2022-08-19T09:02:51.677Z,38.30
2022-08-19T09:05:22.705Z,38.40
2022-08-19T09:08:09.771Z,34.45
2022-08-19T09:10:47.132Z,35.20
2022-08-19T09:13:25.480Z,35.90
2022-08-19T09:15:59.345Z,35.00
2022-08-19T09:18:34.296Z,36.08
2022-08-19T09:21:01.124Z,35.42
2022-08-19T09:23:27.506Z,35.80
2022-08-19T09:25:54.309Z,36.33
2022-08-19T09:28:32.624Z,38.90
2022-08-19T09:31:08.197Z,35.28
2022-08-19T09:33:34.892Z,37.25
2022-08-19T09:36:09.480Z,36.08
2022-08-19T09:38:43.696Z,33.85
2022-08-19T09:41:18.102Z,31.92
2022-08-19T09:43:53.120Z,31.73
2022-08-19T09:46:22.885Z,33.60
2022-08-19T09:48:52.310Z,32.70
2022-08-19T09:51:25.215Z,27.15
2022-08-19T09:53:55.088Z,28.05
2022-08-19T09:56:23.527Z,27.98
2022-08-19T09:58:51.730Z,29.25
2022-08-19T10:01:27.234Z,29.35
2022-08-19T10:03:59.888Z,26.02
2022-08-19T10:06:45.941Z,30.23
2022-08-19T10:09:15.649Z,30.45
2022-08-19T10:11:54.679Z,25.42
2022-08-19T10:14:24.564Z,27.70
2022-08-19T10:16:52.766Z,23.70
2022-08-19T10:19:26.024Z,24.67
2022-08-19T10:21:53.524Z,23.80
2022-08-19T10:24:21.475Z,23.38
2022-08-19T10:26:56.013Z,24.17
2022-08-19T10:29:31.809Z,22.75
2022-08-19T10:32:09.794Z,21.38
2022-08-19T10:34:48.244Z,25.35
2022-08-19T10:37:23.706Z,23.67
2022-08-19T10:39:51.345Z,20.15
2022-08-19T10:42:27.707Z,19.40
2022-08-19T10:44:54.148Z,21.00
2022-08-19T10:47:25.911Z,23.08
2022-08-19T10:50:16.585Z,21.17
2022-08-19T10:52:49.640Z,22.33
2022-08-19T10:55:41.342Z,21.17
2022-08-19T10:58:14.121Z,20.35
2022-08-19T11:00:44.063Z,16.55
2022-08-19T11:03:12.526Z,21.02
2022-08-19T11:05:40.453Z,21.02
2022-08-19T11:08:23.795Z,17.52
2022-08-19T11:10:54.486Z,18.83
2022-08-19T11:13:21.128Z,20.98
2022-08-19T11:15:48.302Z,14.75
2022-08-19T11:18:14.703Z,16.88
2022-08-19T11:20:41.208Z,11.70
2022-08-19T11:23:08.013Z,10.30
2022-08-19T11:25:35.447Z,10.20
2022-08-19T11:28:01.964Z,8.00
2022-08-19T11:30:28.832Z,9.45
2022-08-19T11:32:57.679Z,9.02
2022-08-19T11:35:27.063Z,12.02
2022-08-19T11:37:53.633Z,12.25
2022-08-19T11:40:20.313Z,11.63
2022-08-19T11:42:56.434Z,14.45
2022-08-19T11:45:28.131Z,13.05
2022-08-19T11:47:55.395Z,12.68
2022-08-19T11:50:24.263Z,11.70
2022-08-19T11:52:54.968Z,12.32
2022-08-19T11:55:21.904Z,12.30
2022-08-19T11:57:48.400Z,17.15
2022-08-19T12:00:15.729Z,19.33
2022-08-19T12:02:43.516Z,16.73
2022-08-19T12:05:12.679Z,18.48
2022-08-19T12:07:40.543Z,14.77
2022-08-19T12:10:07.370Z,19.52
2022-08-19T12:12:34.663Z,17.15
2022-08-19T12:15:01.040Z,17.40
2022-08-19T12:17:28.155Z,13.80
2022-08-19T12:19:55.394Z,17.45
2022-08-19T12:22:22.297Z,15.00
2022-08-19T12:24:51.632Z,16.27
2022-08-19T12:27:25.480Z,13.65
2022-08-19T12:30:02.696Z,10.95
2022-08-19T12:32:29.139Z,9.73
2022-08-19T12:34:55.562Z,8.45
2022-08-19T12:37:22.182Z,8.85
2022-08-19T12:39:48.633Z,11.02
2022-08-19T12:42:15.773Z,10.48
2022-08-19T12:44:43.842Z,9.52
2022-08-19T12:47:12.804Z,8.15
2022-08-19T12:49:55.268Z,8.80
2022-08-19T12:52:26.793Z,8.38
2022-08-19T12:54:55.608Z,8.05
2022-08-19T12:57:32.592Z,6.90
2022-08-19T13:00:12.466Z,6.40
2022-08-19T13:02:41.580Z,6.78
2022-08-19T13:05:12.012Z,6.72
2022-08-19T13:07:40.577Z,6.30
2022-08-19T13:10:09.942Z,8.05
2022-08-19T13:12:36.878Z,5.63
2022-08-19T13:15:03.675Z,6.80
2022-08-19T13:17:39.122Z,6.38
2022-08-19T13:20:16.453Z,5.50
2022-08-19T13:22:46.771Z,5.95
2022-08-19T13:25:14.450Z,5.60
2022-08-19T13:27:43.811Z,5.45
2022-08-19T13:30:31.168Z,5.72
2022-08-19T13:33:18.052Z,5.40
2022-08-19T13:35:58.147Z,4.70
2022-08-19T13:38:27.111Z,4.38
2022-08-19T13:40:57.505Z,4.97
2022-08-19T13:43:27.187Z,4.32
2022-08-19T13:45:56.587Z,4.07
2022-08-19T13:48:24.438Z,4.70
2022-08-19T13:50:50.971Z,4.95
2022-08-19T13:53:18.287Z,4.68
2022-08-19T13:55:45.374Z,4.32
2022-08-19T13:58:12.327Z,5.03
2022-08-19T14:00:42.885Z,4.50
2022-08-19T14:03:09.928Z,3.70
2022-08-19T14:05:37.840Z,3.95
2022-08-19T14:08:06.792Z,3.22
2022-08-19T14:10:34.416Z,3.08
2022-08-19T14:13:08.909Z,3.10
2022-08-19T14:15:35.370Z,2.53
2022-08-19T14:18:02.257Z,2.63
2022-08-19T14:20:28.908Z,3.67
2022-08-19T14:22:55.974Z,2.70
2022-08-19T14:25:25.648Z,3.13
2022-08-19T14:27:52.436Z,2.20
2022-08-19T14:30:24.129Z,2.20
2022-08-19T14:32:50.537Z,2.35
2022-08-19T14:35:17.466Z,3.20
2022-08-19T14:37:56.305Z,2.33
2022-08-19T14:40:26.905Z,1.95
2022-08-19T14:43:00.098Z,2.53
2022-08-19T14:45:31.025Z,2.28
2022-08-19T14:48:00.883Z,2.83
2022-08-19T14:50:27.735Z,2.67
2022-08-19T14:53:09.097Z,2.85
2022-08-19T14:55:45.741Z,2.55
2022-08-19T14:58:29.312Z,2.88
2022-08-19T15:00:59.886Z,2.30
2022-08-19T15:03:27.235Z,2.70
2022-08-19T15:05:56.184Z,2.15
2022-08-19T15:08:25.629Z,2.13
2022-08-19T15:10:53.059Z,3.30
2022-08-19T15:13:19.627Z,3.00
2022-08-19T15:15:49.034Z,2.35
2022-08-19T15:18:17.890Z,3.92
2022-08-19T15:20:46.729Z,3.60
2022-08-19T15:23:17.654Z,5.05
2022-08-19T15:25:44.353Z,4.13
2022-08-19T15:28:14.273Z,3.97
2022-08-19T15:30:41.194Z,3.78
2022-08-19T15:33:08.493Z,5.20
2022-08-19T15:35:34.895Z,4.63
2022-08-19T15:38:01.777Z,3.55
2022-08-19T15:40:48.771Z,4.28
2022-08-19T15:43:16.554Z,4.18
2022-08-19T15:45:49.290Z,3.92
2022-08-19T15:48:17.764Z,5.30
2022-08-19T15:50:44.134Z,6.13
2022-08-19T15:53:11.627Z,5.97
2022-08-19T15:55:45.548Z,7.90
2022-08-19T15:58:32.862Z,6.80
2022-08-19T16:01:23.961Z,6.90
2022-08-19T16:04:14.776Z,6.30
2022-08-19T16:06:46.740Z,5.60
2022-08-19T16:09:17.260Z,5.13
2022-08-19T16:11:45.983Z,5.37
2022-08-19T16:14:14.758Z,6.80
2022-08-19T16:16:47.189Z,5.97
2022-08-19T16:19:16.236Z,5.25
2022-08-19T16:21:45.805Z,4.75
2022-08-19T16:24:13.975Z,4.28
2022-08-19T16:26:42.686Z,4.65
2022-08-19T16:29:12.141Z,4.68
2022-08-19T16:31:44.470Z,5.47
2022-08-19T16:34:15.610Z,4.95
2022-08-19T16:36:43.390Z,5.22
2022-08-19T16:39:12.221Z,5.82
2022-08-19T16:41:40.531Z,5.50
2022-08-19T16:44:07.801Z,5.18
2022-08-19T16:46:37.257Z,4.75
2022-08-19T16:49:05.019Z,5.63
2022-08-19T16:51:33.725Z,5.30
2022-08-19T16:54:02.067Z,5.45
2022-08-19T16:56:29.545Z,5.60
2022-08-19T16:58:56.165Z,6.25
2022-08-19T17:01:22.703Z,5.97
2022-08-19T17:03:51.926Z,6.25
2022-08-19T17:06:21.434Z,5.40
2022-08-19T17:08:49.991Z,6.22
2022-08-19T17:11:19.064Z,7.10
2022-08-19T17:13:47.553Z,6.93
2022-08-19T17:16:19.892Z,6.43
2022-08-19T17:18:46.311Z,6.35
2022-08-19T17:21:13.078Z,8.32
2022-08-19T17:23:42.885Z,6.82
2022-08-19T17:26:16.877Z,5.90
2022-08-19T17:28:50.386Z,5.80
2022-08-19T17:31:18.747Z,5.05
2022-08-19T17:33:48.488Z,4.72
2022-08-19T17:36:23.500Z,3.80
2022-08-19T17:38:51.194Z,4.47
2022-08-19T17:41:17.579Z,4.97
2022-08-19T17:43:44.307Z,4.03
2022-08-19T17:46:17.672Z,3.03
2022-08-19T17:48:51.505Z,2.83
2022-08-19T17:51:42.098Z,2.35
2022-08-19T17:54:15.654Z,2.17
2022-08-19T17:56:43.477Z,2.63
2022-08-19T17:59:13.741Z,2.67
2022-08-19T18:01:52.643Z,1.92
2022-08-19T18:04:21.997Z,2.30
2022-08-19T18:06:53.640Z,2.30
2022-08-19T18:09:23.799Z,1.92
2022-08-19T18:11:52.744Z,1.67
2022-08-19T18:14:20.866Z,2.83
2022-08-19T18:16:47.324Z,2.03
2022-08-19T18:19:13.731Z,2.00
2022-08-19T18:21:40.757Z,2.38
2022-08-19T18:24:07.702Z,2.53
2022-08-19T18:26:34.804Z,1.30
2022-08-19T18:29:01.781Z,2.10
2022-08-19T18:31:28.997Z,2.08
2022-08-19T18:33:55.498Z,2.30
2022-08-19T18:36:50.181Z,1.80
2022-08-19T18:39:29.205Z,1.70
2022-08-19T18:42:14.351Z,2.00
2022-08-19T18:45:00.049Z,1.73
2022-08-19T18:47:45.336Z,2.17
2022-08-19T18:50:15.212Z,2.25
2022-08-19T18:52:43.139Z,1.60
2022-08-19T18:55:09.763Z,1.80
2022-08-19T18:57:36.150Z,2.08
2022-08-19T19:00:04.554Z,2.20
2022-08-19T19:02:38.503Z,2.08
2022-08-19T19:05:07.587Z,2.35
2022-08-19T19:07:34.616Z,1.90
2022-08-19T19:10:01.003Z,1.65
2022-08-19T19:12:30.652Z,1.60
2022-08-19T19:14:58.668Z,1.30
2022-08-19T19:17:28.522Z,2.10
2022-08-19T19:19:55.278Z,1.58
2022-08-19T19:22:23.437Z,2.05
2022-08-19T19:24:50.772Z,2.38
2022-08-19T19:27:20.842Z,2.45
2022-08-19T19:29:52.340Z,2.08
2022-08-19T19:32:28.524Z,2.00
2022-08-19T19:34:55.558Z,2.47
2022-08-19T19:37:22.510Z,2.33
2022-08-19T19:39:49.074Z,2.25
2022-08-19T19:42:23.837Z,2.38
2022-08-19T19:44:55.554Z,2.13
2022-08-19T19:47:27.657Z,2.58
2022-08-19T19:52:45.442Z,3.42
2022-08-19T19:55:17.711Z,3.13
2022-08-19T19:57:48.860Z,2.95
2022-08-19T20:00:22.567Z,3.83
2022-08-19T20:02:50.911Z,3.90
2022-08-19T20:05:20.695Z,3.97
2022-08-19T20:08:08.462Z,4.57
2022-08-19T20:10:35.239Z,4.65
2022-08-19T20:13:02.888Z,5.30
2022-08-19T20:15:31.260Z,5.18
2022-08-19T20:17:59.721Z,5.50
2022-08-19T20:20:26.610Z,6.30
2022-08-19T20:22:57.064Z,6.30
2022-08-19T20:25:24.235Z,4.97
2022-08-19T20:27:51.338Z,6.18
2022-08-19T20:30:21.587Z,4.90
2022-08-19T20:32:50.371Z,6.15
2022-08-19T20:35:20.965Z,7.75
2022-08-19T20:37:47.981Z,6.40
2022-08-19T20:40:16.476Z,6.80
2022-08-19T20:42:48.208Z,7.35
2022-08-19T20:45:33.292Z,7.65
2022-08-19T20:48:02.667Z,6.78
2022-08-19T20:50:32.348Z,7.15
2022-08-19T20:52:59.255Z,7.45
2022-08-19T20:55:26.588Z,8.40
2022-08-19T20:57:53.470Z,8.13
2022-08-19T21:00:20.233Z,7.40
2022-08-19T21:02:47.008Z,8.07
2022-08-19T21:05:13.735Z,8.32
2022-08-19T21:07:40.238Z,7.82
2022-08-19T21:10:08.954Z,8.00
2022-08-19T21:12:35.673Z,8.48
2022-08-19T21:15:02.353Z,8.73
2022-08-19T21:17:28.707Z,8.52
2022-08-19T21:19:58.462Z,8.85
2022-08-19T21:22:25.931Z,8.30
2022-08-19T21:24:57.870Z,9.05
2022-08-19T21:27:24.309Z,7.47
2022-08-19T21:29:51.754Z,8.93
2022-08-19T21:32:19.684Z,8.93
2022-08-19T21:34:46.898Z,8.80
2022-08-19T21:37:19.043Z,9.50
2022-08-19T21:39:53.080Z,9.77
2022-08-19T21:42:19.625Z,9.10
2022-08-19T21:44:46.206Z,9.18
2022-08-19T21:47:13.093Z,8.30
2022-08-19T21:49:39.968Z,8.15
2022-08-19T21:52:09.056Z,8.65
2022-08-19T21:54:38.028Z,9.40
2022-08-19T21:57:10.484Z,9.65
2022-08-19T21:59:39.702Z,7.55
2022-08-19T22:02:21.510Z,9.23
2022-08-19T22:04:52.625Z,9.75
2022-08-19T22:07:22.531Z,7.90
2022-08-19T22:09:51.713Z,8.50
2022-08-19T22:12:29.133Z,9.20
2022-08-19T22:14:56.739Z,8.88
2022-08-19T22:17:24.445Z,8.70
2022-08-19T22:19:54.916Z,9.48
2022-08-19T22:22:30.538Z,9.50
2022-08-19T22:25:05.720Z,8.85
2022-08-19T22:27:32.731Z,9.30
2022-08-19T22:30:03.972Z,8.48
2022-08-19T22:32:31.011Z,8.27
2022-08-19T22:34:59.137Z,9.48
2022-08-19T22:37:27.456Z,8.65
2022-08-19T22:39:56.055Z,8.82
2022-08-19T22:42:22.474Z,9.70
2022-08-19T22:44:49.176Z,8.52
2022-08-19T22:47:16.382Z,8.70
2022-08-19T22:49:44.148Z,8.77
2022-08-19T22:52:20.369Z,8.02
2022-08-19T22:55:01.543Z,8.35
2022-08-19T22:57:28.470Z,10.00
2022-08-19T22:59:56.908Z,8.60
2022-08-19T23:02:51.888Z,7.93
2022-08-19T23:05:21.903Z,7.57
2022-08-19T23:07:52.499Z,6.80
2022-08-19T23:10:26.658Z,7.63
2022-08-19T23:12:59.280Z,8.32
2022-08-19T23:17:59.597Z,7.60
2022-08-19T23:20:29.547Z,7.28
2022-08-19T23:22:57.105Z,6.65
2022-08-19T23:25:27.666Z,7.93
2022-08-19T23:28:13.381Z,7.18
2022-08-19T23:30:44.557Z,6.60
2022-08-19T23:33:21.642Z,6.82
2022-08-19T23:35:48.492Z,7.68
2022-08-19T23:38:14.887Z,6.97
2022-08-19T23:40:41.286Z,6.25
2022-08-19T23:43:09.773Z,7.53
2022-08-19T23:45:40.696Z,5.60
2022-08-19T23:48:17.864Z,6.50
2022-08-19T23:50:47.486Z,6.75
2022-08-19T23:53:15.052Z,7.10
2022-08-19T23:55:44.643Z,6.75
2022-08-19T23:58:11.486Z,5.65
